createdAt,value
2023-01-28T00:01:44.390Z,-0.30
2023-01-28T00:04:13.708Z,-0.30
2023-01-28T00:06:41.673Z,-0.30
2023-01-28T00:09:09.985Z,-0.20
2023-01-28T00:11:37.956Z,-0.20
2023-01-28T00:14:06.071Z,-0.20
2023-01-28T00:16:34.202Z,-0.20
2023-01-28T00:19:02.134Z,-0.20
2023-01-28T00:21:31.384Z,-0.20
2023-01-28T00:23:59.317Z,-0.20
2023-01-28T00:26:27.374Z,-0.20
2023-01-28T00:28:55.291Z,-0.30
2023-01-28T00:31:25.120Z,-0.30
2023-01-28T00:33:53.353Z,-0.40
2023-01-28T00:36:23.382Z,-0.40
2023-01-28T00:38:53.515Z,-0.50
2023-01-28T00:41:23.052Z,-0.60
2023-01-28T00:43:51.790Z,-0.70
2023-01-28T00:46:20.615Z,-0.70
2023-01-28T00:48:48.950Z,-0.70
2023-01-28T00:51:19.822Z,-0.80
2023-01-28T00:53:47.837Z,-0.80
2023-01-28T00:56:19.511Z,-0.90
2023-01-28T00:58:47.701Z,-0.80
2023-01-28T01:01:18.793Z,-0.80
2023-01-28T01:03:47.356Z,-0.80
2023-01-28T01:06:17.179Z,-0.80
2023-01-28T01:08:50.084Z,-0.70
2023-01-28T01:11:20.087Z,-0.60
2023-01-28T01:13:52.323Z,-0.50
2023-01-28T01:16:20.454Z,-0.50
2023-01-28T01:18:49.041Z,-0.40
2023-01-28T01:21:18.997Z,-0.40
2023-01-28T01:23:47.429Z,-0.30
2023-01-28T01:26:16.158Z,-0.30
2023-01-28T01:28:45.633Z,-0.30
2023-01-28T01:31:15.292Z,-0.20
2023-01-28T01:33:43.553Z,-0.20
2023-01-28T01:36:13.053Z,-0.20
2023-01-28T01:38:41.208Z,-0.20
2023-01-28T01:41:10.356Z,-0.20
2023-01-28T01:43:53.393Z,-0.10
2023-01-28T01:46:25.917Z,-0.10
2023-01-28T01:48:57.032Z,-0.10
2023-01-28T01:51:29.631Z,-0.10
2023-01-28T01:53:59.433Z,-0.10
2023-01-28T01:56:34.015Z,-0.10
2023-01-28T01:59:04.811Z,-0.10
2023-01-28T02:01:33.197Z,-0.10
2023-01-28T02:04:07.133Z,0.00
2023-01-28T02:06:37.757Z,0.00
2023-01-28T02:09:08.949Z,-0.10
2023-01-28T02:11:37.401Z,-0.10
2023-01-28T02:14:07.625Z,-0.10
2023-01-28T02:16:54.552Z,-0.10
2023-01-28T02:19:27.878Z,-0.10
2023-01-28T02:22:25.549Z,-0.10
2023-01-28T02:25:32.335Z,-0.10
2023-01-28T02:28:14.916Z,0.00
2023-01-28T02:30:47.446Z,-0.10
2023-01-28T02:33:20.472Z,-0.10
2023-01-28T02:35:52.521Z,-0.10
2023-01-28T02:38:25.458Z,-0.10
2023-01-28T02:41:06.926Z,-0.10
2023-01-28T02:43:38.791Z,0.00
2023-01-28T02:46:34.952Z,-0.10
2023-01-28T02:49:04.893Z,-0.10
2023-01-28T02:51:42.862Z,-0.10
2023-01-28T02:54:15.649Z,-0.10
2023-01-28T02:56:50.859Z,-0.10
2023-01-28T02:59:34.221Z,-0.10
2023-01-28T03:02:11.177Z,-0.10
2023-01-28T03:04:45.332Z,-0.10
2023-01-28T03:07:15.569Z,-0.10
2023-01-28T03:09:45.739Z,-0.10
2023-01-28T03:12:37.561Z,-0.10
2023-01-28T03:15:28.914Z,-0.10
2023-01-28T03:18:19.745Z,-0.10
2023-01-28T03:21:09.272Z,-0.10
2023-01-28T03:23:59.588Z,-0.10
2023-01-28T03:26:49.037Z,-0.20
2023-01-28T03:29:35.980Z,-0.20
2023-01-28T03:32:23.871Z,-0.10
2023-01-28T03:35:10.726Z,-0.20
2023-01-28T03:37:38.756Z,-0.20
2023-01-28T03:40:08.881Z,-0.10
2023-01-28T03:42:36.788Z,-0.10
2023-01-28T03:45:06.610Z,-0.10
2023-01-28T03:47:35.829Z,-0.10
2023-01-28T03:50:06.724Z,-0.10
2023-01-28T03:52:35.001Z,0.00
2023-01-28T03:55:14.308Z,0.00
2023-01-28T03:57:44.760Z,0.00
2023-01-28T04:00:14.306Z,0.00
2023-01-28T04:02:43.596Z,0.00
2023-01-28T04:05:13.153Z,-0.10
2023-01-28T04:07:42.125Z,-0.10
2023-01-28T04:10:11.226Z,-0.10
2023-01-28T04:12:39.170Z,-0.10
2023-01-28T04:15:15.811Z,-0.10
2023-01-28T04:17:49.373Z,-0.10
2023-01-28T04:20:18.038Z,-0.10
2023-01-28T04:22:45.950Z,-0.10
2023-01-28T04:25:14.184Z,0.00
2023-01-28T04:27:42.327Z,0.00
2023-01-28T04:30:11.497Z,0.00
2023-01-28T04:32:39.484Z,0.00
2023-01-28T04:35:09.570Z,0.00
2023-01-28T04:37:37.460Z,0.00
2023-01-28T04:40:06.047Z,0.00
2023-01-28T04:42:33.951Z,0.10
2023-01-28T04:45:02.001Z,0.00
2023-01-28T04:47:30.103Z,0.00
2023-01-28T04:49:58.052Z,0.00
2023-01-28T04:52:27.332Z,0.00
2023-01-28T04:54:55.836Z,0.00
2023-01-28T04:57:23.993Z,0.00
2023-01-28T04:59:51.978Z,0.00
2023-01-28T05:02:19.957Z,0.00
2023-01-28T05:04:48.210Z,0.00
2023-01-28T05:07:16.115Z,0.00
2023-01-28T05:09:45.383Z,0.00
2023-01-28T05:12:13.268Z,0.00
2023-01-28T05:14:41.191Z,0.00
2023-01-28T05:17:09.114Z,0.00
2023-01-28T05:19:37.058Z,0.00
2023-01-28T05:22:04.964Z,0.10
2023-01-28T05:24:32.968Z,0.00
2023-01-28T05:27:02.283Z,0.00
2023-01-28T05:29:30.206Z,0.00
2023-01-28T05:31:58.122Z,0.00
2023-01-28T05:34:26.359Z,0.00
2023-01-28T05:36:54.312Z,0.10
2023-01-28T05:39:22.199Z,0.10
2023-01-28T05:41:50.108Z,0.10
2023-01-28T05:44:19.396Z,0.10
2023-01-28T05:46:47.318Z,0.10
2023-01-28T05:49:15.306Z,0.10
2023-01-28T05:51:43.602Z,0.10
2023-01-28T05:54:11.666Z,0.10
2023-01-28T05:56:40.359Z,0.10
2023-01-28T05:59:10.384Z,0.10
2023-01-28T06:01:39.693Z,0.10
2023-01-28T06:04:07.644Z,0.10
2023-01-28T06:06:35.575Z,0.00
2023-01-28T06:09:03.520Z,0.00
2023-01-28T06:11:31.461Z,0.00
2023-01-28T06:13:59.528Z,0.00
2023-01-28T06:16:27.720Z,0.00
2023-01-28T06:18:56.972Z,0.00
2023-01-28T06:21:24.944Z,0.00
2023-01-28T06:23:52.841Z,0.00
2023-01-28T06:26:20.817Z,0.00
2023-01-28T06:28:48.726Z,-0.10
2023-01-28T06:31:16.656Z,-0.10
2023-01-28T06:33:44.545Z,-0.10
2023-01-28T06:36:14.071Z,-0.20
2023-01-28T06:38:41.959Z,-0.10
2023-01-28T06:41:09.882Z,-0.10
2023-01-28T06:43:37.924Z,-0.10
2023-01-28T06:46:06.166Z,-0.10
2023-01-28T06:48:34.110Z,-0.10
2023-01-28T06:51:02.107Z,-0.10
2023-01-28T06:53:31.402Z,-0.10
2023-01-28T06:55:59.477Z,-0.10
2023-01-28T06:58:27.361Z,-0.10
2023-01-28T07:00:55.455Z,-0.10
2023-01-28T07:03:23.357Z,-0.10
2023-01-28T07:05:51.350Z,0.00
2023-01-28T07:08:19.297Z,0.00
2023-01-28T07:10:49.323Z,0.00
2023-01-28T07:13:17.271Z,0.00
2023-01-28T07:15:46.061Z,0.00
2023-01-28T07:18:13.982Z,0.00
2023-01-28T07:20:41.934Z,0.00
2023-01-28T07:23:09.877Z,0.00
2023-01-28T07:25:37.790Z,0.00
2023-01-28T07:28:07.237Z,0.00
2023-01-28T07:30:35.224Z,0.10
2023-01-28T07:33:03.380Z,0.10
2023-01-28T07:35:32.435Z,0.10
2023-01-28T07:38:02.093Z,0.20
2023-01-28T07:40:30.595Z,0.20
2023-01-28T07:42:58.542Z,0.20
2023-01-28T07:45:30.564Z,0.30
2023-01-28T07:48:00.012Z,0.30
2023-01-28T07:50:29.137Z,0.30
2023-01-28T07:52:57.352Z,0.30
2023-01-28T07:55:25.739Z,0.30
2023-01-28T07:57:54.913Z,0.30
2023-01-28T08:00:23.813Z,0.40
2023-01-28T08:02:57.364Z,0.40
2023-01-28T08:05:27.222Z,0.40
2023-01-28T08:07:55.300Z,0.40
2023-01-28T08:10:23.224Z,0.40
2023-01-28T08:12:55.124Z,0.40
2023-01-28T08:15:23.814Z,0.40
2023-01-28T08:17:55.235Z,0.40
2023-01-28T08:20:23.459Z,0.40
2023-01-28T08:22:51.414Z,0.40
2023-01-28T08:25:19.611Z,0.40
2023-01-28T08:27:47.531Z,0.40
2023-01-28T08:30:16.159Z,0.40
2023-01-28T08:32:44.252Z,0.50
2023-01-28T08:35:13.514Z,0.50
2023-01-28T08:37:41.430Z,0.60
2023-01-28T08:40:10.751Z,0.60
2023-01-28T08:42:38.697Z,0.60
2023-01-28T08:45:07.999Z,0.70
2023-01-28T08:47:35.904Z,0.70
2023-01-28T08:50:03.823Z,0.80
2023-01-28T08:52:33.051Z,0.80
2023-01-28T08:55:00.960Z,0.80
2023-01-28T08:57:28.874Z,0.80
2023-01-28T08:59:56.783Z,0.80
2023-01-28T09:02:31.505Z,0.80
2023-01-28T09:05:00.533Z,0.80
2023-01-28T09:07:28.502Z,0.80
2023-01-28T09:09:57.831Z,0.90
2023-01-28T09:12:25.862Z,0.90
2023-01-28T09:14:53.946Z,0.90
2023-01-28T09:17:22.362Z,0.90
2023-01-28T09:19:50.587Z,0.90
2023-01-28T09:22:18.799Z,0.90
2023-01-28T09:24:46.772Z,1.00
2023-01-28T09:27:16.079Z,1.00
2023-01-28T09:29:44.226Z,1.00
2023-01-28T09:32:12.192Z,1.00
2023-01-28T09:34:40.173Z,1.00
2023-01-28T09:37:08.076Z,1.00
2023-01-28T09:39:35.987Z,1.00
2023-01-28T09:42:20.396Z,1.10
2023-01-28T09:45:02.036Z,1.10
2023-01-28T09:47:35.086Z,1.10
2023-01-28T09:50:08.429Z,1.00
2023-01-28T09:52:38.175Z,1.10
2023-01-28T09:55:08.683Z,1.10
2023-01-28T09:57:44.935Z,1.10
2023-01-28T10:00:27.559Z,1.10
2023-01-28T10:03:26.699Z,1.10
2023-01-28T10:06:02.194Z,1.10
2023-01-28T10:08:44.491Z,1.10
2023-01-28T10:11:21.506Z,1.20
2023-01-28T10:14:00.161Z,1.10
2023-01-28T10:16:32.454Z,1.10
2023-01-28T10:19:06.094Z,1.10
2023-01-28T10:21:38.449Z,1.10
2023-01-28T10:24:11.744Z,1.10
2023-01-28T10:26:41.764Z,1.10
2023-01-28T10:29:17.749Z,1.10
2023-01-28T10:31:53.255Z,1.10
2023-01-28T10:34:21.746Z,1.10
2023-01-28T10:36:50.297Z,1.10
2023-01-28T10:39:22.256Z,1.10
2023-01-28T10:41:57.895Z,1.10
2023-01-28T10:44:33.484Z,1.10
2023-01-28T10:47:05.677Z,1.10
2023-01-28T10:49:37.325Z,1.10
2023-01-28T10:52:13.290Z,1.20
2023-01-28T10:54:41.224Z,1.20
2023-01-28T10:57:13.234Z,1.20
2023-01-28T10:59:43.392Z,1.20
2023-01-28T11:02:27.275Z,1.20
2023-01-28T11:05:04.544Z,1.20
2023-01-28T11:07:32.531Z,1.20
2023-01-28T11:10:00.564Z,1.20
2023-01-28T11:12:29.707Z,1.20
2023-01-28T11:15:00.370Z,1.20
2023-01-28T11:17:31.045Z,1.30
2023-01-28T11:20:02.427Z,1.30
2023-01-28T11:22:36.863Z,1.30
2023-01-28T11:25:15.456Z,1.30
2023-01-28T11:27:48.500Z,1.30
2023-01-28T11:30:25.666Z,1.30
2023-01-28T11:33:03.705Z,1.30
2023-01-28T11:35:33.126Z,1.30
2023-01-28T11:38:01.819Z,1.30
2023-01-28T11:40:30.428Z,1.20
2023-01-28T11:42:59.780Z,1.20
2023-01-28T11:45:39.262Z,1.20
2023-01-28T11:48:24.724Z,1.30
2023-01-28T11:51:00.541Z,1.30
2023-01-28T11:53:47.383Z,1.30
2023-01-28T11:56:28.053Z,1.30
2023-01-28T11:59:09.275Z,1.30
2023-01-28T12:01:47.181Z,1.30
2023-01-28T12:04:23.812Z,1.20
2023-01-28T12:07:13.991Z,1.20
2023-01-28T12:09:52.606Z,1.10
2023-01-28T12:12:39.918Z,1.10
2023-01-28T12:15:24.858Z,1.10
2023-01-28T12:18:09.610Z,1.10
2023-01-28T12:20:46.930Z,1.10
2023-01-28T12:23:36.593Z,1.10
2023-01-28T12:26:11.191Z,1.10
2023-01-28T12:28:59.403Z,1.10
2023-01-28T12:32:01.087Z,1.10
2023-01-28T12:34:54.911Z,1.10
2023-01-28T12:37:33.848Z,1.10
2023-01-28T12:40:15.432Z,1.00
2023-01-28T12:42:49.235Z,1.00
2023-01-28T12:45:20.596Z,1.00
2023-01-28T12:47:53.773Z,1.00
2023-01-28T12:50:26.769Z,1.00
2023-01-28T12:52:58.308Z,1.00
2023-01-28T12:55:39.831Z,1.00
2023-01-28T12:58:13.412Z,1.00
2023-01-28T13:00:46.828Z,1.00
2023-01-28T13:03:21.599Z,1.00
2023-01-28T13:05:52.531Z,1.00
2023-01-28T13:08:25.771Z,1.00
2023-01-28T13:10:54.857Z,1.00
2023-01-28T13:13:30.166Z,1.00
2023-01-28T13:15:58.946Z,1.00
2023-01-28T13:18:36.150Z,1.00
2023-01-28T13:21:07.003Z,1.00
2023-01-28T13:23:40.305Z,1.00
2023-01-28T13:26:29.508Z,1.00
2023-01-28T13:29:10.237Z,1.10
2023-01-28T13:31:41.077Z,1.10
2023-01-28T13:34:11.295Z,1.10
2023-01-28T13:36:45.909Z,1.10
2023-01-28T13:39:20.125Z,1.10
2023-01-28T13:41:49.823Z,1.10
2023-01-28T13:44:23.165Z,1.10
2023-01-28T13:46:51.319Z,1.20
2023-01-28T13:49:27.528Z,1.20
2023-01-28T13:52:02.907Z,1.20
2023-01-28T13:54:34.746Z,1.20
2023-01-28T13:57:25.585Z,1.20
2023-01-28T14:00:06.034Z,1.30
2023-01-28T14:03:06.594Z,1.30
2023-01-28T14:06:14.193Z,1.30
2023-01-28T14:09:05.993Z,1.30
2023-01-28T14:12:10.072Z,1.30
2023-01-28T14:15:04.974Z,1.30
2023-01-28T14:17:42.929Z,1.20
2023-01-28T14:20:18.534Z,1.30
2023-01-28T14:22:46.720Z,1.30
2023-01-28T14:25:21.708Z,1.20
2023-01-28T14:27:54.419Z,1.30
2023-01-28T14:30:30.808Z,1.20
2023-01-28T14:32:58.875Z,1.20
2023-01-28T14:35:31.594Z,1.20
2023-01-28T14:38:01.213Z,1.20
2023-01-28T14:40:31.636Z,1.10
2023-01-28T14:42:59.653Z,1.10
2023-01-28T14:45:43.021Z,1.10
2023-01-28T14:48:25.322Z,1.00
2023-01-28T14:51:11.907Z,1.00
2023-01-28T14:54:00.141Z,1.00
2023-01-28T14:56:39.624Z,1.00
2023-01-28T14:59:18.377Z,1.00
2023-01-28T15:01:47.885Z,1.00
2023-01-28T15:04:25.232Z,0.90
2023-01-28T15:06:53.204Z,0.90
2023-01-28T15:09:22.343Z,0.90
2023-01-28T15:11:55.276Z,0.90
2023-01-28T15:14:28.247Z,0.90
2023-01-28T15:16:56.653Z,0.90
2023-01-28T15:19:28.724Z,0.90
2023-01-28T15:21:58.663Z,0.90
2023-01-28T15:24:26.925Z,0.90
2023-01-28T15:26:56.268Z,0.90
2023-01-28T15:29:32.243Z,0.80
2023-01-28T15:32:00.812Z,0.80
2023-01-28T15:34:30.417Z,0.80
2023-01-28T15:36:59.039Z,0.80
2023-01-28T15:39:28.568Z,0.80
2023-01-28T15:42:02.521Z,0.80
2023-01-28T15:44:33.477Z,0.80
2023-01-28T15:47:02.517Z,0.80
2023-01-28T15:49:35.234Z,0.70
2023-01-28T15:52:03.706Z,0.70
2023-01-28T15:54:32.622Z,0.70
2023-01-28T15:57:11.978Z,0.70
2023-01-28T15:59:39.915Z,0.70
2023-01-28T16:02:21.292Z,0.70
2023-01-28T16:05:00.468Z,0.70
2023-01-28T16:07:30.087Z,0.70
2023-01-28T16:10:00.002Z,0.70
2023-01-28T16:12:29.489Z,0.70
2023-01-28T16:14:59.721Z,0.70
2023-01-28T16:17:31.489Z,0.70
2023-01-28T16:20:03.000Z,0.70
2023-01-28T16:22:36.029Z,0.70
2023-01-28T16:25:05.403Z,0.70
2023-01-28T16:27:34.654Z,0.70
2023-01-28T16:30:02.614Z,0.70
2023-01-28T16:32:35.157Z,0.70
2023-01-28T16:35:03.596Z,0.70
2023-01-28T16:37:31.720Z,0.70
2023-01-28T16:40:01.576Z,0.70
2023-01-28T16:42:32.061Z,0.70
2023-01-28T16:45:01.329Z,0.70
2023-01-28T16:47:29.473Z,0.70
2023-01-28T16:49:57.365Z,0.70
2023-01-28T16:52:25.382Z,0.70
2023-01-28T16:54:53.325Z,0.70
2023-01-28T16:57:22.827Z,0.60
2023-01-28T16:59:50.717Z,0.60
2023-01-28T17:02:19.976Z,0.60
2023-01-28T17:04:47.890Z,0.60
2023-01-28T17:07:15.803Z,0.60
2023-01-28T17:09:43.714Z,0.60
2023-01-28T17:12:11.748Z,0.60
2023-01-28T17:14:39.998Z,0.60
2023-01-28T17:17:07.970Z,0.60
2023-01-28T17:19:37.231Z,0.60
2023-01-28T17:22:05.178Z,0.60
2023-01-28T17:24:33.120Z,0.60
2023-01-28T17:27:01.072Z,0.60
2023-01-28T17:29:28.967Z,0.60
2023-01-28T17:31:56.963Z,0.60
2023-01-28T17:34:24.902Z,0.60
2023-01-28T17:36:54.169Z,0.60
2023-01-28T17:39:22.338Z,0.60
2023-01-28T17:41:52.074Z,0.60
2023-01-28T17:44:20.629Z,0.50
2023-01-28T17:46:48.529Z,0.50
2023-01-28T17:49:16.467Z,0.50
2023-01-28T17:51:44.437Z,0.50
2023-01-28T17:54:13.714Z,0.50
2023-01-28T17:56:41.613Z,0.40
2023-01-28T17:59:11.754Z,0.40
2023-01-28T18:01:39.654Z,0.40
2023-01-28T18:04:07.557Z,0.40
2023-01-28T18:06:36.548Z,0.40
2023-01-28T18:09:07.048Z,0.40
2023-01-28T18:11:36.434Z,0.40
2023-01-28T18:14:04.427Z,0.40
2023-01-28T18:16:32.348Z,0.40
2023-01-28T18:19:00.270Z,0.40
2023-01-28T18:21:51.731Z,0.40
2023-01-28T18:24:20.587Z,0.40
2023-01-28T18:26:50.264Z,0.40
2023-01-28T18:29:20.791Z,0.40
2023-01-28T18:31:49.349Z,0.40
2023-01-28T18:34:17.744Z,0.40
2023-01-28T18:36:46.237Z,0.40
2023-01-28T18:39:14.657Z,0.40
2023-01-28T18:41:42.704Z,0.40
2023-01-28T18:44:14.178Z,0.40
2023-01-28T18:46:42.530Z,0.40
2023-01-28T18:49:11.106Z,0.40
2023-01-28T18:51:39.417Z,0.40
2023-01-28T18:54:12.039Z,0.40
2023-01-28T18:56:41.453Z,0.40
2023-01-28T18:59:13.625Z,0.40
2023-01-28T19:01:42.708Z,0.40
2023-01-28T19:04:11.537Z,0.40
2023-01-28T19:06:39.514Z,0.40
2023-01-28T19:09:08.007Z,0.40
2023-01-28T19:11:37.870Z,0.40
2023-01-28T19:14:06.304Z,0.40
2023-01-28T19:16:37.335Z,0.40
2023-01-28T19:19:05.664Z,0.30
2023-01-28T19:21:33.765Z,0.30
2023-01-28T19:24:03.818Z,0.40
2023-01-28T19:26:33.049Z,0.40
2023-01-28T19:29:01.630Z,0.40
2023-01-28T19:31:30.180Z,0.40
2023-01-28T19:34:01.101Z,0.40
2023-01-28T19:36:31.180Z,0.40
2023-01-28T19:39:00.061Z,0.40
2023-01-28T19:41:28.575Z,0.40
2023-01-28T19:43:57.432Z,0.40
2023-01-28T19:46:25.582Z,0.40
2023-01-28T19:48:53.844Z,0.30
2023-01-28T19:51:23.877Z,0.30
2023-01-28T19:53:52.917Z,0.30
2023-01-28T19:56:22.685Z,0.30
2023-01-28T19:58:50.718Z,0.30
2023-01-28T20:01:20.852Z,0.30
2023-01-28T20:03:52.667Z,0.30
2023-01-28T20:06:22.745Z,0.30
2023-01-28T20:08:53.935Z,0.30
2023-01-28T20:11:22.239Z,0.30
2023-01-28T20:13:51.689Z,0.30
2023-01-28T20:16:23.176Z,0.30
2023-01-28T20:18:51.918Z,0.30
2023-01-28T20:21:20.814Z,0.30
2023-01-28T20:23:52.388Z,0.30
2023-01-28T20:26:22.145Z,0.30
2023-01-28T20:28:50.368Z,0.30
2023-01-28T20:31:20.461Z,0.30
2023-01-28T20:33:48.824Z,0.30
2023-01-28T20:36:16.777Z,0.30
2023-01-28T20:38:46.323Z,0.40
2023-01-28T20:41:17.151Z,0.40
2023-01-28T20:43:46.079Z,0.40
2023-01-28T20:46:16.203Z,0.40
2023-01-28T20:48:44.478Z,0.40
2023-01-28T20:51:14.414Z,0.40
2023-01-28T20:53:43.210Z,0.40
2023-01-28T20:56:12.560Z,0.40
2023-01-28T20:58:42.025Z,0.40
2023-01-28T21:01:17.227Z,0.40
2023-01-28T21:03:45.261Z,0.40
2023-01-28T21:06:13.483Z,0.40
2023-01-28T21:08:41.408Z,0.40
2023-01-28T21:11:10.228Z,0.40
2023-01-28T21:13:38.407Z,0.30
2023-01-28T21:16:08.584Z,0.30
2023-01-28T21:18:37.263Z,0.30
2023-01-28T21:21:06.221Z,0.30
2023-01-28T21:23:34.375Z,0.20
2023-01-28T21:26:03.412Z,0.20
2023-01-28T21:28:31.454Z,0.30
2023-01-28T21:31:10.723Z,0.30
2023-01-28T21:33:39.118Z,0.30
2023-01-28T21:36:11.353Z,0.30
2023-01-28T21:38:39.337Z,0.30
2023-01-28T21:41:08.206Z,0.20
2023-01-28T21:43:36.531Z,0.20
2023-01-28T21:46:04.682Z,0.20
2023-01-28T21:48:35.533Z,0.10
2023-01-28T21:51:24.513Z,0.10
2023-01-28T21:53:52.866Z,0.10
2023-01-28T21:56:21.158Z,0.10
2023-01-28T21:59:06.624Z,0.10
2023-01-28T22:01:34.879Z,0.10
2023-01-28T22:04:04.750Z,0.10
2023-01-28T22:06:33.042Z,0.10
2023-01-28T22:09:01.055Z,0.10
2023-01-28T22:11:28.974Z,0.10
2023-01-28T22:13:56.887Z,0.10
2023-01-28T22:16:24.897Z,0.10
2023-01-28T22:18:53.878Z,0.10
2023-01-28T22:21:23.116Z,0.10
2023-01-28T22:23:51.296Z,0.10
2023-01-28T22:26:19.344Z,0.10
2023-01-28T22:28:47.305Z,0.10
2023-01-28T22:31:17.477Z,0.10
2023-01-28T22:33:46.886Z,0.20
2023-01-28T22:36:16.858Z,0.20
2023-01-28T22:38:46.880Z,0.20
2023-01-28T22:41:19.154Z,0.20
2023-01-28T22:43:47.768Z,0.10
2023-01-28T22:46:16.179Z,0.10
2023-01-28T22:48:44.324Z,0.10
2023-01-28T22:51:16.709Z,0.00
2023-01-28T22:53:47.284Z,0.00
2023-01-28T22:56:16.896Z,0.00
2023-01-28T22:58:45.084Z,0.00
2023-01-28T23:01:15.426Z,0.00
2023-01-28T23:03:46.685Z,0.00
2023-01-28T23:06:16.277Z,0.00
2023-01-28T23:08:46.196Z,0.00
2023-01-28T23:11:16.101Z,0.00
2023-01-28T23:14:02.485Z,-0.10
2023-01-28T23:16:49.109Z,-0.10
2023-01-28T23:19:35.087Z,-0.10
2023-01-28T23:22:20.889Z,-0.10
2023-01-28T23:24:50.209Z,-0.10
2023-01-28T23:27:18.161Z,-0.10
2023-01-28T23:29:46.503Z,-0.10
2023-01-28T23:32:14.640Z,-0.10
2023-01-28T23:34:44.531Z,-0.10
2023-01-28T23:37:13.960Z,-0.10
2023-01-28T23:39:42.544Z,-0.10
2023-01-28T23:42:13.965Z,-0.10
2023-01-28T23:44:42.031Z,-0.10
2023-01-28T23:47:10.579Z,-0.10
2023-01-28T23:49:39.145Z,-0.10
2023-01-28T23:52:08.409Z,0.00
2023-01-28T23:54:36.892Z,0.00
2023-01-28T23:57:06.480Z,0.00
2023-01-28T23:59:36.518Z,0.00
